Elena Of London — 2COR3 — position and weather

sailwx.info

Track history (hours):
 
Tides and Currents Weather Stations Pressure Air Temp Water Temp Dewpoint Dewpoint Depression Visibility Wind Speed Wind Dir Waves Ship Positions

Elena Of London

Last reported at 2015-May-26 08:30 UTC. Time now 2015-May-30 12:36 UTC.
Position N 43°49' E 007°47'.

Length 44 m; draft 5.2 m.

Type: Sailing vessel. MMSI: 235074534.

Date/timePositionNaut miles runAvg speedWind from/ knotsBaromVisibWave heightAir tempDewpointWater temp
2015-May-26 08:30N 43°49' E 007°47'0 0.0
2015-May-25 20:20N 43°49' E 007°48'0 0.0
2015-May-25 18:03N 43°49' E 007°48'0 0.0
2015-May-25 17:20N 43°49' E 007°48'0 0.0
2015-May-25 16:21N 43°49' E 007°48'0 0.0
2015-May-25 15:33N 43°49' E 007°48'4 1.8
2015-May-25 13:33N 43°47' E 007°43'1111.4
2015-May-25 12:33N 43°44' E 007°28'7 6.6
2015-May-25 11:29N 43°42' E 007°19'4 4.5
2015-May-25 10:32N 43°43' E 007°25'7 6.7
2015-May-25 09:32N 43°36' E 007°25'6 5.8
2015-May-25 08:33N 43°32' E 007°31'13 0.9
2015-May-24 19:08N 43°44' E 007°26'0 0.0
2015-May-24 18:26N 43°44' E 007°26'2 0.2
2015-May-24 08:33N 43°43' E 007°24'2 1.2
2015-May-24 06:33N 43°42' E 007°21'0 0.0
2015-May-24 03:19N 43°42' E 007°21'0 0.0
2015-May-24 00:26N 43°42' E 007°21'0 0.0
2015-May-23 19:32N 43°42' E 007°21'1 0.5
2015-May-23 16:33N 43°43' E 007°22'1 0.2
2015-May-23 12:33N 43°43' E 007°23'4 3.9
2015-May-23 11:33N 43°40' E 007°20'2 1.6
2015-May-23 10:23N 43°42' E 007°19'0 0.0
2015-May-23 09:31N 43°42' E 007°19'3 3.0
2015-May-23 08:33N 43°41' E 007°23'  
2015-May-19 02:31N 43°41' E 007°33'6 6.2
2015-May-19 01:29N 43°37' E 007°25'6 6.4
2015-May-19 00:33N 43°34' E 007°18'7 7.4
2015-May-18 23:33N 43°30' E 007°10'10 7.8
2015-May-18 22:18N 43°25' E 006°58'7 9.4
2015-May-18 21:33N 43°20' E 006°51'1110.8
2015-May-18 20:33N 43°11' E 006°44'1110.9
2015-May-18 19:33N 43°02' E 006°35'1010.2
2015-May-18 18:33N 42°54' E 006°26'1010.2
2015-May-18 17:33N 42°47' E 006°15'241 9.1
2015-May-17 15:04N 39°48' E 002°42'0 0.0
2015-May-17 14:33N 39°48' E 002°42'0 0.0
2015-May-17 13:33N 39°48' E 002°41'0 0.0
2015-May-17 12:33N 39°48' E 002°41'0 0.0
2015-May-17 11:33N 39°48' E 002°41'7 6.8
2015-May-17 10:28N 39°43' E 002°34'910.0
2015-May-17 09:32N 39°38' E 002°24'8 8.2
2015-May-17 08:33N 39°30' E 002°23'9 8.6
2015-May-17 07:33N 39°29' E 002°34'  
Track history (hours):
 
Tides and Currents Weather Stations Pressure Air Temp Water Temp Dewpoint Dewpoint Depression Visibility Wind Speed Wind Dir Waves Ship Positions

Elena Of London

Last reported at 2015-May-26 08:30 UTC. Time now 2015-May-30 12:36 UTC.
Position N 43°49' E 007°47'.

Length 44 m; draft 5.2 m.

Type: Sailing vessel. MMSI: 235074534.

Date/timePositionNaut miles runAvg speedWind from/ knotsBaromVisibWave heightAir tempDewpointWater temp
2015-May-26 08:30N 43°49' E 007°47'0 0.0
2015-May-25 20:20N 43°49' E 007°48'0 0.0
2015-May-25 18:03N 43°49' E 007°48'0 0.0
2015-May-25 17:20N 43°49' E 007°48'0 0.0
2015-May-25 16:21N 43°49' E 007°48'0 0.0
2015-May-25 15:33N 43°49' E 007°48'4 1.8
2015-May-25 13:33N 43°47' E 007°43'1111.4
2015-May-25 12:33N 43°44' E 007°28'7 6.6
2015-May-25 11:29N 43°42' E 007°19'4 4.5
2015-May-25 10:32N 43°43' E 007°25'7 6.7
2015-May-25 09:32N 43°36' E 007°25'6 5.8
2015-May-25 08:33N 43°32' E 007°31'13 0.9
2015-May-24 19:08N 43°44' E 007°26'0 0.0
2015-May-24 18:26N 43°44' E 007°26'2 0.2
2015-May-24 08:33N 43°43' E 007°24'2 1.2
2015-May-24 06:33N 43°42' E 007°21'0 0.0
2015-May-24 03:19N 43°42' E 007°21'0 0.0
2015-May-24 00:26N 43°42' E 007°21'0 0.0
2015-May-23 19:32N 43°42' E 007°21'1 0.5
2015-May-23 16:33N 43°43' E 007°22'1 0.2
2015-May-23 12:33N 43°43' E 007°23'4 3.9
2015-May-23 11:33N 43°40' E 007°20'2 1.6
2015-May-23 10:23N 43°42' E 007°19'0 0.0
2015-May-23 09:31N 43°42' E 007°19'3 3.0
2015-May-23 08:33N 43°41' E 007°23'  
2015-May-19 02:31N 43°41' E 007°33'6 6.2
2015-May-19 01:29N 43°37' E 007°25'6 6.4
2015-May-19 00:33N 43°34' E 007°18'7 7.4
2015-May-18 23:33N 43°30' E 007°10'10 7.8
2015-May-18 22:18N 43°25' E 006°58'7 9.4
2015-May-18 21:33N 43°20' E 006°51'1110.8
2015-May-18 20:33N 43°11' E 006°44'1110.9
2015-May-18 19:33N 43°02' E 006°35'1010.2
2015-May-18 18:33N 42°54' E 006°26'1010.2
2015-May-18 17:33N 42°47' E 006°15'241 9.1
2015-May-17 15:04N 39°48' E 002°42'0 0.0
2015-May-17 14:33N 39°48' E 002°42'0 0.0
2015-May-17 13:33N 39°48' E 002°41'0 0.0
2015-May-17 12:33N 39°48' E 002°41'0 0.0
2015-May-17 11:33N 39°48' E 002°41'7 6.8
2015-May-17 10:28N 39°43' E 002°34'910.0
2015-May-17 09:32N 39°38' E 002°24'8 8.2
2015-May-17 08:33N 39°30' E 002°23'9 8.6
2015-May-17 07:33N 39°29' E 002°34'  

Dump ship's entire track history